sensor_id;sensor_type;location;lat;lon;timestamp;P1;durP1;ratioP1;P2;durP2;ratioP2
52396;SDS011;38322;53.108;6.308;2023-02-11T06:02:36;35.05;;;17.95;;
52396;SDS011;38322;53.108;6.308;2023-02-11T06:05:01;39.67;;;18.60;;
52396;SDS011;38322;53.108;6.308;2023-02-11T06:07:27;35.17;;;19.95;;
52396;SDS011;38322;53.108;6.308;2023-02-11T06:09:53;31.90;;;18.48;;
52396;SDS011;38322;53.108;6.308;2023-02-11T06:12:19;29.45;;;19.52;;
52396;SDS011;38322;53.108;6.308;2023-02-11T06:14:45;33.00;;;18.08;;
52396;SDS011;38322;53.108;6.308;2023-02-11T06:17:11;42.05;;;20.30;;
52396;SDS011;38322;53.108;6.308;2023-02-11T06:19:37;33.10;;;18.30;;
52396;SDS011;38322;53.108;6.308;2023-02-11T06:22:03;35.53;;;19.55;;
52396;SDS011;38322;53.108;6.308;2023-02-11T06:24:29;28.48;;;19.02;;
52396;SDS011;38322;53.108;6.308;2023-02-11T06:26:55;36.50;;;17.38;;
52396;SDS011;38322;53.108;6.308;2023-02-11T06:29:21;35.53;;;19.42;;
52396;SDS011;38322;53.108;6.308;2023-02-11T06:31:46;34.58;;;19.00;;
52396;SDS011;38322;53.108;6.308;2023-02-11T06:34:12;39.53;;;18.67;;
52396;SDS011;38322;53.108;6.308;2023-02-11T06:36:38;29.92;;;19.23;;
52396;SDS011;38322;53.108;6.308;2023-02-11T06:39:05;38.45;;;20.15;;
52396;SDS011;38322;53.108;6.308;2023-02-11T06:41:32;38.92;;;21.17;;
52396;SDS011;38322;53.108;6.308;2023-02-11T06:43:57;34.10;;;19.73;;
52396;SDS011;38322;53.108;6.308;2023-02-11T06:46:23;38.85;;;19.23;;
52396;SDS011;38322;53.108;6.308;2023-02-11T06:48:49;35.65;;;19.48;;
52396;SDS011;38322;53.108;6.308;2023-02-11T06:51:15;36.67;;;19.90;;
52396;SDS011;38322;53.108;6.308;2023-02-11T06:53:42;37.33;;;19.17;;
52396;SDS011;38322;53.108;6.308;2023-02-11T06:56:11;35.08;;;19.55;;
52396;SDS011;38322;53.108;6.308;2023-02-11T06:58:38;38.50;;;19.73;;
52396;SDS011;38322;53.108;6.308;2023-02-11T07:01:06;44.58;;;21.08;;
52396;SDS011;38322;53.108;6.308;2023-02-11T07:03:34;34.88;;;19.20;;
52396;SDS011;38322;53.108;6.308;2023-02-11T07:06:02;36.38;;;19.65;;
52396;SDS011;38322;53.108;6.308;2023-02-11T07:08:30;33.35;;;18.75;;
52396;SDS011;38322;53.108;6.308;2023-02-11T07:10:57;35.92;;;18.42;;
52396;SDS011;38322;53.108;6.308;2023-02-11T07:13:23;39.15;;;20.30;;
52396;SDS011;38322;53.108;6.308;2023-02-11T07:15:49;44.53;;;20.73;;
52396;SDS011;38322;53.108;6.308;2023-02-11T07:18:15;37.35;;;20.38;;
52396;SDS011;38322;53.108;6.308;2023-02-11T07:20:41;41.97;;;22.80;;
52396;SDS011;38322;53.108;6.308;2023-02-11T07:23:07;36.40;;;21.27;;
52396;SDS011;38322;53.108;6.308;2023-02-11T07:25:34;34.63;;;18.55;;
52396;SDS011;38322;53.108;6.308;2023-02-11T07:28:00;38.30;;;20.00;;
52396;SDS011;38322;53.108;6.308;2023-02-11T07:30:27;31.85;;;18.35;;
52396;SDS011;38322;53.108;6.308;2023-02-11T07:32:52;36.03;;;21.90;;
52396;SDS011;38322;53.108;6.308;2023-02-11T07:35:18;41.53;;;18.27;;
52396;SDS011;38322;53.108;6.308;2023-02-11T07:37:44;30.00;;;17.67;;
52396;SDS011;38322;53.108;6.308;2023-02-11T07:40:10;32.13;;;17.48;;
52396;SDS011;38322;53.108;6.308;2023-02-11T07:42:36;33.80;;;18.55;;
52396;SDS011;38322;53.108;6.308;2023-02-11T07:45:03;35.90;;;19.15;;
52396;SDS011;38322;53.108;6.308;2023-02-11T07:47:29;36.30;;;19.38;;
52396;SDS011;38322;53.108;6.308;2023-02-11T07:49:55;32.88;;;19.20;;
52396;SDS011;38322;53.108;6.308;2023-02-11T07:52:21;39.20;;;19.95;;
52396;SDS011;38322;53.108;6.308;2023-02-11T07:54:47;35.58;;;18.15;;
52396;SDS011;38322;53.108;6.308;2023-02-11T07:57:13;29.45;;;17.83;;
52396;SDS011;38322;53.108;6.308;2023-02-11T07:59:39;39.72;;;21.15;;
52396;SDS011;38322;53.108;6.308;2023-02-11T08:02:05;38.45;;;20.10;;
52396;SDS011;38322;53.108;6.308;2023-02-11T08:04:31;38.70;;;20.65;;
52396;SDS011;38322;53.108;6.308;2023-02-11T08:06:56;39.67;;;19.33;;
52396;SDS011;38322;53.108;6.308;2023-02-11T08:09:23;31.73;;;18.98;;
52396;SDS011;38322;53.108;6.308;2023-02-11T08:11:49;38.97;;;18.17;;
52396;SDS011;38322;53.108;6.308;2023-02-11T08:14:15;30.67;;;18.70;;
52396;SDS011;38322;53.108;6.308;2023-02-11T08:16:40;31.48;;;17.77;;
52396;SDS011;38322;53.108;6.308;2023-02-11T08:19:09;31.98;;;20.50;;
52396;SDS011;38322;53.108;6.308;2023-02-11T08:21:38;30.15;;;18.55;;
52396;SDS011;38322;53.108;6.308;2023-02-11T08:24:04;32.33;;;20.30;;
52396;SDS011;38322;53.108;6.308;2023-02-11T08:26:31;38.55;;;19.35;;
52396;SDS011;38322;53.108;6.308;2023-02-11T08:28:59;36.35;;;19.15;;
52396;SDS011;38322;53.108;6.308;2023-02-11T08:31:28;35.10;;;19.00;;
52396;SDS011;38322;53.108;6.308;2023-02-11T08:33:57;35.45;;;17.85;;
52396;SDS011;38322;53.108;6.308;2023-02-11T08:36:24;31.58;;;18.92;;
52396;SDS011;38322;53.108;6.308;2023-02-11T08:38:53;32.10;;;17.75;;
52396;SDS011;38322;53.108;6.308;2023-02-11T08:41:20;31.77;;;17.38;;
52396;SDS011;38322;53.108;6.308;2023-02-11T08:43:46;32.20;;;18.70;;
52396;SDS011;38322;53.108;6.308;2023-02-11T08:46:14;28.98;;;17.38;;
52396;SDS011;38322;53.108;6.308;2023-02-11T08:48:41;35.17;;;18.83;;
52396;SDS011;38322;53.108;6.308;2023-02-11T08:51:09;31.83;;;17.67;;
52396;SDS011;38322;53.108;6.308;2023-02-11T08:53:37;27.88;;;16.88;;
52396;SDS011;38322;53.108;6.308;2023-02-11T08:56:04;28.02;;;16.50;;
52396;SDS011;38322;53.108;6.308;2023-02-11T08:58:30;36.20;;;19.00;;
52396;SDS011;38322;53.108;6.308;2023-02-11T09:00:56;26.05;;;15.13;;
52396;SDS011;38322;53.108;6.308;2023-02-11T09:03:22;25.50;;;16.05;;
52396;SDS011;38322;53.108;6.308;2023-02-11T09:05:49;29.70;;;15.70;;
52396;SDS011;38322;53.108;6.308;2023-02-11T09:08:17;32.40;;;16.17;;
52396;SDS011;38322;53.108;6.308;2023-02-11T09:10:44;31.10;;;17.45;;
52396;SDS011;38322;53.108;6.308;2023-02-11T09:13:11;29.27;;;16.52;;
52396;SDS011;38322;53.108;6.308;2023-02-11T09:15:37;29.02;;;17.02;;
52396;SDS011;38322;53.108;6.308;2023-02-11T09:18:03;40.30;;;18.20;;
52396;SDS011;38322;53.108;6.308;2023-02-11T09:20:29;29.00;;;14.45;;
52396;SDS011;38322;53.108;6.308;2023-02-11T09:22:56;30.60;;;16.17;;
52396;SDS011;38322;53.108;6.308;2023-02-11T09:25:23;27.95;;;15.45;;
52396;SDS011;38322;53.108;6.308;2023-02-11T09:27:49;30.40;;;15.60;;
52396;SDS011;38322;53.108;6.308;2023-02-11T09:30:16;24.00;;;14.73;;
52396;SDS011;38322;53.108;6.308;2023-02-11T09:32:42;28.45;;;14.95;;
52396;SDS011;38322;53.108;6.308;2023-02-11T09:35:08;24.75;;;13.52;;
52396;SDS011;38322;53.108;6.308;2023-02-11T09:37:34;26.92;;;14.00;;
52396;SDS011;38322;53.108;6.308;2023-02-11T09:40:00;22.75;;;13.57;;
52396;SDS011;38322;53.108;6.308;2023-02-11T09:45:11;23.17;;;13.85;;
52396;SDS011;38322;53.108;6.308;2023-02-11T09:47:46;31.73;;;13.40;;
52396;SDS011;38322;53.108;6.308;2023-02-11T09:50:28;20.17;;;11.88;;
52396;SDS011;38322;53.108;6.308;2023-02-11T09:53:01;22.48;;;12.80;;
52396;SDS011;38322;53.108;6.308;2023-02-11T09:55:32;26.75;;;11.75;;
52396;SDS011;38322;53.108;6.308;2023-02-11T09:58:11;19.90;;;10.75;;
52396;SDS011;38322;53.108;6.308;2023-02-11T10:00:43;23.23;;;12.80;;
52396;SDS011;38322;53.108;6.308;2023-02-11T10:03:20;21.00;;;11.43;;
52396;SDS011;38322;53.108;6.308;2023-02-11T10:06:06;20.38;;;10.70;;
52396;SDS011;38322;53.108;6.308;2023-02-11T10:19:42;23.70;;;10.63;;
52396;SDS011;38322;53.108;6.308;2023-02-11T10:22:24;18.98;;;10.90;;
52396;SDS011;38322;53.108;6.308;2023-02-11T10:24:57;22.38;;;10.00;;
52396;SDS011;38322;53.108;6.308;2023-02-11T10:27:27;18.48;;;8.63;;
52396;SDS011;38322;53.108;6.308;2023-02-11T10:30:19;23.67;;;9.80;;
52396;SDS011;38322;53.108;6.308;2023-02-11T10:32:48;19.20;;;8.23;;
52396;SDS011;38322;53.108;6.308;2023-02-11T10:35:24;15.55;;;7.95;;
52396;SDS011;38322;53.108;6.308;2023-02-11T10:37:51;15.93;;;6.97;;
52396;SDS011;38322;53.108;6.308;2023-02-11T10:40:22;24.38;;;7.20;;
52396;SDS011;38322;53.108;6.308;2023-02-11T10:42:52;16.35;;;6.28;;
52396;SDS011;38322;53.108;6.308;2023-02-11T10:45:27;17.02;;;8.20;;
52396;SDS011;38322;53.108;6.308;2023-02-11T10:47:58;17.30;;;5.72;;
52396;SDS011;38322;53.108;6.308;2023-02-11T10:50:27;14.30;;;5.88;;
52396;SDS011;38322;53.108;6.308;2023-02-11T10:53:10;12.95;;;6.65;;
52396;SDS011;38322;53.108;6.308;2023-02-11T10:55:50;15.48;;;5.50;;
52396;SDS011;38322;53.108;6.308;2023-02-11T10:58:27;17.08;;;5.07;;
52396;SDS011;38322;53.108;6.308;2023-02-11T11:00:55;11.95;;;6.00;;
52396;SDS011;38322;53.108;6.308;2023-02-11T11:03:26;11.10;;;4.60;;
52396;SDS011;38322;53.108;6.308;2023-02-11T11:05:57;12.07;;;3.90;;
52396;SDS011;38322;53.108;6.308;2023-02-11T11:08:37;11.73;;;4.75;;
52396;SDS011;38322;53.108;6.308;2023-02-11T11:11:18;15.73;;;5.82;;
52396;SDS011;38322;53.108;6.308;2023-02-11T11:18:46;11.30;;;4.68;;
52396;SDS011;38322;53.108;6.308;2023-02-11T11:21:18;16.55;;;4.88;;
52396;SDS011;38322;53.108;6.308;2023-02-11T11:23:58;11.60;;;4.00;;
52396;SDS011;38322;53.108;6.308;2023-02-11T11:26:26;17.70;;;5.15;;
52396;SDS011;38322;53.108;6.308;2023-02-11T11:29:15;14.43;;;4.18;;
52396;SDS011;38322;53.108;6.308;2023-02-11T11:31:46;18.80;;;4.18;;
52396;SDS011;38322;53.108;6.308;2023-02-11T11:34:26;13.05;;;4.53;;
52396;SDS011;38322;53.108;6.308;2023-02-11T11:36:55;16.30;;;4.38;;
52396;SDS011;38322;53.108;6.308;2023-02-11T11:39:24;14.15;;;4.28;;
52396;SDS011;38322;53.108;6.308;2023-02-11T11:41:59;18.00;;;5.75;;
52396;SDS011;38322;53.108;6.308;2023-02-11T11:44:29;15.00;;;4.45;;
52396;SDS011;38322;53.108;6.308;2023-02-11T11:47:10;18.45;;;4.22;;
52396;SDS011;38322;53.108;6.308;2023-02-11T11:49:55;16.52;;;5.72;;
52396;SDS011;38322;53.108;6.308;2023-02-11T11:52:46;13.05;;;4.45;;
52396;SDS011;38322;53.108;6.308;2023-02-11T11:55:19;12.68;;;4.68;;
52396;SDS011;38322;53.108;6.308;2023-02-11T11:57:48;8.88;;;3.45;;
52396;SDS011;38322;53.108;6.308;2023-02-11T12:00:19;13.15;;;2.83;;
52396;SDS011;38322;53.108;6.308;2023-02-11T12:03:03;6.68;;;2.83;;
52396;SDS011;38322;53.108;6.308;2023-02-11T12:06:06;12.73;;;3.45;;
52396;SDS011;38322;53.108;6.308;2023-02-11T12:08:49;11.95;;;3.45;;
52396;SDS011;38322;53.108;6.308;2023-02-11T12:14:18;11.52;;;3.00;;
52396;SDS011;38322;53.108;6.308;2023-02-11T12:16:50;10.38;;;3.10;;
52396;SDS011;38322;53.108;6.308;2023-02-11T12:30:31;10.43;;;2.78;;
52396;SDS011;38322;53.108;6.308;2023-02-11T12:35:47;15.43;;;2.60;;
52396;SDS011;38322;53.108;6.308;2023-02-11T12:38:28;9.70;;;2.30;;
52396;SDS011;38322;53.108;6.308;2023-02-11T12:44:23;13.57;;;3.10;;
52396;SDS011;38322;53.108;6.308;2023-02-11T12:49:40;8.65;;;3.17;;
52396;SDS011;38322;53.108;6.308;2023-02-11T12:52:24;8.90;;;2.13;;
52396;SDS011;38322;53.108;6.308;2023-02-11T12:54:59;21.80;;;4.85;;
52396;SDS011;38322;53.108;6.308;2023-02-11T12:57:33;18.48;;;3.10;;
52396;SDS011;38322;53.108;6.308;2023-02-11T13:00:03;11.88;;;2.28;;
52396;SDS011;38322;53.108;6.308;2023-02-11T13:02:38;12.43;;;2.38;;
52396;SDS011;38322;53.108;6.308;2023-02-11T13:05:21;10.95;;;3.03;;
52396;SDS011;38322;53.108;6.308;2023-02-11T13:08:20;14.35;;;2.03;;
52396;SDS011;38322;53.108;6.308;2023-02-11T13:10:57;7.88;;;1.85;;
52396;SDS011;38322;53.108;6.308;2023-02-11T13:13:29;16.20;;;2.20;;
52396;SDS011;38322;53.108;6.308;2023-02-11T13:16:01;12.45;;;2.28;;
52396;SDS011;38322;53.108;6.308;2023-02-11T13:18:44;9.07;;;2.67;;
52396;SDS011;38322;53.108;6.308;2023-02-11T13:24:11;15.40;;;2.55;;
52396;SDS011;38322;53.108;6.308;2023-02-11T13:26:58;9.40;;;2.05;;
52396;SDS011;38322;53.108;6.308;2023-02-11T13:29:41;9.75;;;2.08;;
52396;SDS011;38322;53.108;6.308;2023-02-11T13:35:28;6.30;;;1.90;;
52396;SDS011;38322;53.108;6.308;2023-02-11T13:37:59;15.43;;;2.70;;
52396;SDS011;38322;53.108;6.308;2023-02-11T13:40:28;15.40;;;2.20;;
52396;SDS011;38322;53.108;6.308;2023-02-11T13:42:59;16.50;;;2.90;;
52396;SDS011;38322;53.108;6.308;2023-02-11T13:48:05;12.63;;;4.55;;
52396;SDS011;38322;53.108;6.308;2023-02-11T13:50:48;11.57;;;2.45;;
52396;SDS011;38322;53.108;6.308;2023-02-11T13:53:18;13.82;;;2.15;;
52396;SDS011;38322;53.108;6.308;2023-02-11T13:55:47;9.77;;;2.50;;
52396;SDS011;38322;53.108;6.308;2023-02-11T13:58:17;11.75;;;1.90;;
52396;SDS011;38322;53.108;6.308;2023-02-11T14:01:00;14.52;;;3.22;;
52396;SDS011;38322;53.108;6.308;2023-02-11T14:03:29;13.75;;;2.65;;
52396;SDS011;38322;53.108;6.308;2023-02-11T14:11:44;17.00;;;2.63;;
52396;SDS011;38322;53.108;6.308;2023-02-11T14:14:25;7.88;;;2.55;;
52396;SDS011;38322;53.108;6.308;2023-02-11T14:19:32;9.43;;;3.28;;
52396;SDS011;38322;53.108;6.308;2023-02-11T14:22:03;15.75;;;2.55;;
52396;SDS011;38322;53.108;6.308;2023-02-11T14:27:05;16.75;;;2.92;;
52396;SDS011;38322;53.108;6.308;2023-02-11T14:32:20;7.53;;;3.78;;
52396;SDS011;38322;53.108;6.308;2023-02-11T14:35:06;14.00;;;1.92;;
52396;SDS011;38322;53.108;6.308;2023-02-11T14:37:42;8.38;;;2.00;;
52396;SDS011;38322;53.108;6.308;2023-02-11T14:40:30;9.90;;;2.00;;
52396;SDS011;38322;53.108;6.308;2023-02-11T14:43:15;11.20;;;2.47;;
52396;SDS011;38322;53.108;6.308;2023-02-11T14:45:47;16.50;;;2.70;;
52396;SDS011;38322;53.108;6.308;2023-02-11T14:48:16;9.80;;;2.72;;
52396;SDS011;38322;53.108;6.308;2023-02-11T14:50:45;8.55;;;1.75;;
52396;SDS011;38322;53.108;6.308;2023-02-11T14:53:17;10.37;;;2.03;;
52396;SDS011;38322;53.108;6.308;2023-02-11T14:55:47;9.68;;;1.83;;
52396;SDS011;38322;53.108;6.308;2023-02-11T14:58:17;8.30;;;3.08;;
52396;SDS011;38322;53.108;6.308;2023-02-11T15:00:47;20.48;;;2.53;;
52396;SDS011;38322;53.108;6.308;2023-02-11T15:03:25;9.00;;;2.17;;
52396;SDS011;38322;53.108;6.308;2023-02-11T15:05:54;8.68;;;1.33;;
52396;SDS011;38322;53.108;6.308;2023-02-11T15:08:23;10.30;;;2.33;;
52396;SDS011;38322;53.108;6.308;2023-02-11T15:10:49;19.00;;;3.25;;
52396;SDS011;38322;53.108;6.308;2023-02-11T15:13:19;15.65;;;3.38;;
52396;SDS011;38322;53.108;6.308;2023-02-11T15:15:52;11.63;;;1.98;;
52396;SDS011;38322;53.108;6.308;2023-02-11T15:18:22;9.35;;;1.45;;
52396;SDS011;38322;53.108;6.308;2023-02-11T15:20:54;11.27;;;1.48;;
52396;SDS011;38322;53.108;6.308;2023-02-11T15:23:21;9.07;;;1.25;;
52396;SDS011;38322;53.108;6.308;2023-02-11T15:25:49;11.98;;;2.35;;
52396;SDS011;38322;53.108;6.308;2023-02-11T15:28:25;12.85;;;1.92;;
52396;SDS011;38322;53.108;6.308;2023-02-11T15:30:55;7.28;;;1.38;;
52396;SDS011;38322;53.108;6.308;2023-02-11T15:33:24;15.50;;;2.35;;
52396;SDS011;38322;53.108;6.308;2023-02-11T15:35:50;9.88;;;1.95;;
52396;SDS011;38322;53.108;6.308;2023-02-11T15:38:16;7.90;;;2.60;;
52396;SDS011;38322;53.108;6.308;2023-02-11T15:40:58;12.35;;;2.53;;
52396;SDS011;38322;53.108;6.308;2023-02-11T15:43:43;10.38;;;1.83;;
52396;SDS011;38322;53.108;6.308;2023-02-11T15:46:12;12.02;;;1.50;;
52396;SDS011;38322;53.108;6.308;2023-02-11T15:53:48;11.10;;;2.15;;
52396;SDS011;38322;53.108;6.308;2023-02-11T15:56:23;12.82;;;2.15;;
52396;SDS011;38322;53.108;6.308;2023-02-11T15:58:55;10.45;;;2.65;;
52396;SDS011;38322;53.108;6.308;2023-02-11T16:01:29;11.90;;;2.17;;
52396;SDS011;38322;53.108;6.308;2023-02-11T16:03:57;12.27;;;1.95;;
52396;SDS011;38322;53.108;6.308;2023-02-11T16:06:24;8.77;;;1.85;;
52396;SDS011;38322;53.108;6.308;2023-02-11T16:09:00;13.20;;;3.40;;
52396;SDS011;38322;53.108;6.308;2023-02-11T16:11:30;17.77;;;2.85;;
52396;SDS011;38322;53.108;6.308;2023-02-11T16:13:58;12.95;;;2.85;;
52396;SDS011;38322;53.108;6.308;2023-02-11T16:16:30;12.98;;;2.53;;
52396;SDS011;38322;53.108;6.308;2023-02-11T16:18:58;14.80;;;2.67;;
52396;SDS011;38322;53.108;6.308;2023-02-11T16:21:28;14.73;;;2.88;;
52396;SDS011;38322;53.108;6.308;2023-02-11T16:23:57;10.05;;;1.90;;
52396;SDS011;38322;53.108;6.308;2023-02-11T16:26:25;10.05;;;2.58;;
52396;SDS011;38322;53.108;6.308;2023-02-11T16:31:32;16.60;;;3.17;;
52396;SDS011;38322;53.108;6.308;2023-02-11T16:33:59;16.63;;;3.80;;
52396;SDS011;38322;53.108;6.308;2023-02-11T16:36:25;9.48;;;2.17;;
52396;SDS011;38322;53.108;6.308;2023-02-11T16:38:51;13.15;;;1.95;;
52396;SDS011;38322;53.108;6.308;2023-02-11T16:41:17;10.68;;;2.83;;
52396;SDS011;38322;53.108;6.308;2023-02-11T16:43:42;10.30;;;1.92;;
52396;SDS011;38322;53.108;6.308;2023-02-11T16:46:10;16.33;;;2.15;;
52396;SDS011;38322;53.108;6.308;2023-02-11T16:48:39;14.52;;;3.17;;
52396;SDS011;38322;53.108;6.308;2023-02-11T16:51:04;16.55;;;3.25;;
52396;SDS011;38322;53.108;6.308;2023-02-11T16:53:33;11.98;;;2.88;;
52396;SDS011;38322;53.108;6.308;2023-02-11T16:55:59;14.13;;;3.03;;
52396;SDS011;38322;53.108;6.308;2023-02-11T16:58:25;18.13;;;3.08;;
52396;SDS011;38322;53.108;6.308;2023-02-11T17:00:50;11.80;;;1.98;;
52396;SDS011;38322;53.108;6.308;2023-02-11T17:03:19;14.45;;;1.90;;
52396;SDS011;38322;53.108;6.308;2023-02-11T17:05:47;14.35;;;2.03;;
52396;SDS011;38322;53.108;6.308;2023-02-11T17:08:14;11.52;;;3.08;;
52396;SDS011;38322;53.108;6.308;2023-02-11T17:10:40;12.15;;;1.85;;
52396;SDS011;38322;53.108;6.308;2023-02-11T17:13:05;12.55;;;2.40;;
52396;SDS011;38322;53.108;6.308;2023-02-11T17:15:31;13.00;;;2.25;;
52396;SDS011;38322;53.108;6.308;2023-02-11T17:17:58;11.05;;;2.08;;
52396;SDS011;38322;53.108;6.308;2023-02-11T17:20:23;14.88;;;2.55;;
52396;SDS011;38322;53.108;6.308;2023-02-11T17:22:50;19.42;;;2.75;;
52396;SDS011;38322;53.108;6.308;2023-02-11T17:25:16;22.00;;;2.33;;
52396;SDS011;38322;53.108;6.308;2023-02-11T17:27:42;12.48;;;3.00;;
52396;SDS011;38322;53.108;6.308;2023-02-11T17:30:09;19.45;;;3.97;;
52396;SDS011;38322;53.108;6.308;2023-02-11T17:32:37;15.73;;;5.03;;
52396;SDS011;38322;53.108;6.308;2023-02-11T17:35:03;10.43;;;2.72;;
52396;SDS011;38322;53.108;6.308;2023-02-11T17:37:31;16.85;;;4.43;;
52396;SDS011;38322;53.108;6.308;2023-02-11T17:39:57;13.23;;;4.20;;
52396;SDS011;38322;53.108;6.308;2023-02-11T17:42:23;13.50;;;3.70;;
52396;SDS011;38322;53.108;6.308;2023-02-11T17:44:48;10.95;;;3.05;;
52396;SDS011;38322;53.108;6.308;2023-02-11T17:47:14;16.08;;;3.80;;
52396;SDS011;38322;53.108;6.308;2023-02-11T17:49:40;10.63;;;3.92;;
52396;SDS011;38322;53.108;6.308;2023-02-11T17:52:06;15.18;;;3.22;;
52396;SDS011;38322;53.108;6.308;2023-02-11T17:54:32;13.70;;;3.28;;
52396;SDS011;38322;53.108;6.308;2023-02-11T17:56:58;11.48;;;3.63;;
52396;SDS011;38322;53.108;6.308;2023-02-11T17:59:24;17.48;;;3.25;;
52396;SDS011;38322;53.108;6.308;2023-02-11T18:01:50;17.67;;;3.75;;
52396;SDS011;38322;53.108;6.308;2023-02-11T18:04:17;19.00;;;3.20;;
52396;SDS011;38322;53.108;6.308;2023-02-11T18:06:44;14.73;;;4.75;;
52396;SDS011;38322;53.108;6.308;2023-02-11T18:09:10;14.27;;;3.67;;
52396;SDS011;38322;53.108;6.308;2023-02-11T18:11:37;10.30;;;4.30;;
52396;SDS011;38322;53.108;6.308;2023-02-11T18:14:04;12.43;;;3.92;;
52396;SDS011;38322;53.108;6.308;2023-02-11T18:16:32;16.83;;;3.08;;
52396;SDS011;38322;53.108;6.308;2023-02-11T18:19:01;14.73;;;4.05;;
52396;SDS011;38322;53.108;6.308;2023-02-11T18:21:27;11.15;;;4.10;;
52396;SDS011;38322;53.108;6.308;2023-02-11T18:23:53;16.17;;;2.40;;
52396;SDS011;38322;53.108;6.308;2023-02-11T18:26:21;14.63;;;2.45;;
52396;SDS011;38322;53.108;6.308;2023-02-11T18:28:50;18.98;;;3.08;;
52396;SDS011;38322;53.108;6.308;2023-02-11T18:31:17;9.93;;;2.72;;
52396;SDS011;38322;53.108;6.308;2023-02-11T18:33:43;14.63;;;3.88;;
52396;SDS011;38322;53.108;6.308;2023-02-11T18:36:11;11.68;;;3.40;;
52396;SDS011;38322;53.108;6.308;2023-02-11T18:38:39;19.42;;;3.42;;
52396;SDS011;38322;53.108;6.308;2023-02-11T18:41:08;13.30;;;2.45;;
52396;SDS011;38322;53.108;6.308;2023-02-11T18:43:34;12.82;;;3.75;;
52396;SDS011;38322;53.108;6.308;2023-02-11T18:46:01;16.30;;;3.53;;
52396;SDS011;38322;53.108;6.308;2023-02-11T18:48:31;14.05;;;4.07;;
52396;SDS011;38322;53.108;6.308;2023-02-11T18:50:57;11.85;;;4.80;;
52396;SDS011;38322;53.108;6.308;2023-02-11T18:53:23;10.25;;;3.58;;
52396;SDS011;38322;53.108;6.308;2023-02-11T18:55:49;18.00;;;5.70;;
52396;SDS011;38322;53.108;6.308;2023-02-11T18:58:16;18.17;;;3.35;;
52396;SDS011;38322;53.108;6.308;2023-02-11T19:00:43;23.02;;;4.07;;
52396;SDS011;38322;53.108;6.308;2023-02-11T19:03:11;13.25;;;3.30;;
52396;SDS011;38322;53.108;6.308;2023-02-11T19:08:21;8.07;;;3.22;;
52396;SDS011;38322;53.108;6.308;2023-02-11T19:10:47;15.48;;;4.57;;
52396;SDS011;38322;53.108;6.308;2023-02-11T19:13:14;15.02;;;3.90;;
52396;SDS011;38322;53.108;6.308;2023-02-11T19:15:40;10.50;;;3.63;;
52396;SDS011;38322;53.108;6.308;2023-02-11T19:18:07;20.77;;;4.00;;
52396;SDS011;38322;53.108;6.308;2023-02-11T19:20:33;21.52;;;4.15;;
52396;SDS011;38322;53.108;6.308;2023-02-11T19:22:59;13.55;;;4.15;;
52396;SDS011;38322;53.108;6.308;2023-02-11T19:25:25;22.30;;;6.78;;
52396;SDS011;38322;53.108;6.308;2023-02-11T19:27:53;23.15;;;5.15;;
52396;SDS011;38322;53.108;6.308;2023-02-11T19:30:19;16.92;;;3.78;;
52396;SDS011;38322;53.108;6.308;2023-02-11T19:32:45;11.48;;;3.15;;
52396;SDS011;38322;53.108;6.308;2023-02-11T19:35:17;13.98;;;4.40;;
52396;SDS011;38322;53.108;6.308;2023-02-11T19:37:43;15.60;;;4.72;;
52396;SDS011;38322;53.108;6.308;2023-02-11T19:40:10;9.88;;;4.35;;
52396;SDS011;38322;53.108;6.308;2023-02-11T19:42:37;14.98;;;3.90;;
52396;SDS011;38322;53.108;6.308;2023-02-11T19:45:03;26.75;;;4.90;;
52396;SDS011;38322;53.108;6.308;2023-02-11T19:47:31;14.93;;;4.65;;
52396;SDS011;38322;53.108;6.308;2023-02-11T19:49:57;20.42;;;6.72;;
52396;SDS011;38322;53.108;6.308;2023-02-11T19:52:23;11.18;;;3.35;;
52396;SDS011;38322;53.108;6.308;2023-02-11T19:54:49;19.38;;;5.00;;
52396;SDS011;38322;53.108;6.308;2023-02-11T19:57:15;13.60;;;3.85;;
52396;SDS011;38322;53.108;6.308;2023-02-11T19:59:41;9.27;;;3.55;;
52396;SDS011;38322;53.108;6.308;2023-02-11T20:02:08;12.63;;;4.15;;
52396;SDS011;38322;53.108;6.308;2023-02-11T20:04:35;18.58;;;5.10;;
52396;SDS011;38322;53.108;6.308;2023-02-11T20:07:01;12.13;;;5.03;;
52396;SDS011;38322;53.108;6.308;2023-02-11T20:09:27;12.32;;;4.38;;
52396;SDS011;38322;53.108;6.308;2023-02-11T20:11:55;16.23;;;4.78;;
52396;SDS011;38322;53.108;6.308;2023-02-11T20:14:21;11.82;;;5.05;;
52396;SDS011;38322;53.108;6.308;2023-02-11T20:16:47;16.27;;;4.85;;
52396;SDS011;38322;53.108;6.308;2023-02-11T20:19:13;15.02;;;4.00;;
52396;SDS011;38322;53.108;6.308;2023-02-11T20:21:42;12.50;;;4.60;;
52396;SDS011;38322;53.108;6.308;2023-02-11T20:24:10;13.80;;;5.47;;
52396;SDS011;38322;53.108;6.308;2023-02-11T20:26:36;20.27;;;4.97;;
52396;SDS011;38322;53.108;6.308;2023-02-11T20:29:05;12.05;;;5.95;;
52396;SDS011;38322;53.108;6.308;2023-02-11T20:31:31;14.63;;;5.57;;
52396;SDS011;38322;53.108;6.308;2023-02-11T20:33:58;10.63;;;4.72;;
52396;SDS011;38322;53.108;6.308;2023-02-11T20:36:26;15.93;;;5.43;;
52396;SDS011;38322;53.108;6.308;2023-02-11T20:38:56;15.27;;;6.07;;
52396;SDS011;38322;53.108;6.308;2023-02-11T20:41:24;10.95;;;5.00;;
52396;SDS011;38322;53.108;6.308;2023-02-11T20:43:53;11.75;;;4.43;;
52396;SDS011;38322;53.108;6.308;2023-02-11T20:46:21;13.20;;;4.22;;
52396;SDS011;38322;53.108;6.308;2023-02-11T20:48:49;19.25;;;4.00;;
52396;SDS011;38322;53.108;6.308;2023-02-11T20:51:17;9.75;;;4.07;;
52396;SDS011;38322;53.108;6.308;2023-02-11T20:53:46;16.33;;;4.60;;
52396;SDS011;38322;53.108;6.308;2023-02-11T20:56:14;16.38;;;4.10;;
52396;SDS011;38322;53.108;6.308;2023-02-11T20:58:41;10.52;;;4.65;;
